Terminal Aerodrome Forecast
Issued by NWS

Home | Current Version | Previous Version | Text Only | Print | Product List | Glossary On
Versions: 1 2 3 4 5 6 7 8 9 10 11 12 13 14
000
FTUS44 KMAF 201727
TAFINK
TAF
KINK 201727Z 2018/2118 18010KT P6SM FEW120 SCT200
     FM210100 14011KT P6SM SCT200
     FM210800 14008KT P6SM BKN020
     FM211500 17009KT P6SM FEW020 SCT100=

USA.gov is the U.S. government's official web portal to all federal, state and local government web resources and services.